Time;durP1;ratioP1;P1;durP2;ratioP2;P2;SDS_P1;SDS_P2;PMS_P1;PMS_P2;Temp;Humidity;BMP_temperature;BMP_pressure;BME280_temperature;BME280_humidity;BME280_pressure;Samples;Min_cycle;Max_cycle;Signal;HPM_P1;HPM_P2
2023/03/30 00:01:43;;;;;;;8.02;3.38;;;;;;;;;;6314562;28;20052;-72
2023/03/30 00:04:54;;;;;;;11.13;3.33;;;;;;;;;;6314842;28;20055;-72
2023/03/30 00:08:01;;;;;;;8.77;2.85;;;;;;;;;;6304034;28;20052;-72
2023/03/30 00:11:06;;;;;;;9.88;2.88;;;;;;;;;;6313800;28;20052;-72
2023/03/30 00:14:10;;;;;;;12.13;3.33;;;;;;;;;;6312285;28;20053;-72
2023/03/30 00:17:16;;;;;;;7.90;3.13;;;;;;;;;;6316158;28;20259;-71
2023/03/30 00:20:18;;;;;;;9.88;2.83;;;;;;;;;;6317362;28;20056;-72
2023/03/30 00:23:21;;;;;;;8.73;2.80;;;;;;;;;;6318265;28;20072;-72
2023/03/30 00:26:23;;;;;;;7.25;2.75;;;;;;;;;;6313974;28;20058;-72
2023/03/30 00:29:26;;;;;;;9.93;3.00;;;;;;;;;;6312800;28;20048;-70
2023/03/30 00:32:28;;;;;;;10.23;2.87;;;;;;;;;;6318569;28;20048;-70
2023/03/30 00:35:42;;;;;;;11.88;3.03;;;;;;;;;;6317956;28;20229;-70
2023/03/30 00:38:44;;;;;;;;;;;;;;;;;;6318058;28;20070;-70
2023/03/30 00:41:46;;;;;;;8.02;2.90;;;;;;;;;;6319858;28;20147;-71
2023/03/30 00:45:18;;;;;;;9.25;3.00;;;;;;;;;;6314076;28;20048;-72
2023/03/30 00:48:27;;;;;;;10.38;2.92;;;;;;;;;;6313626;28;20232;-71
2023/03/30 00:51:30;;;;;;;14.13;4.50;;;;;;;;;;6311625;28;20048;-71
2023/03/30 00:54:32;;;;;;;8.70;3.20;;;;;;;;;;6317190;28;20056;-70
2023/03/30 00:57:38;;;;;;;6.97;2.88;;;;;;;;;;6316319;28;20055;-69
2023/03/30 01:00:42;;;;;;;15.00;3.05;;;;;;;;;;6319496;28;20059;-72
2023/03/30 01:03:50;;;;;;;8.32;2.50;;;;;;;;;;6315676;28;20051;-71
2023/03/30 01:06:54;;;;;;;5.97;2.75;;;;;;;;;;6318209;28;20340;-72
2023/03/30 01:09:58;;;;;;;12.60;3.33;;;;;;;;;;6313729;28;20058;-72
2023/03/30 01:13:04;;;;;;;7.75;3.00;;;;;;;;;;6318003;28;20119;-72
2023/03/30 01:16:19;;;;;;;10.55;3.10;;;;;;;;;;6315716;28;20048;-71
2023/03/30 01:20:10;;;;;;;7.15;3.00;;;;;;;;;;6318231;28;20098;-72
2023/03/30 01:23:34;;;;;;;12.88;3.33;;;;;;;;;;6210471;28;20064;-72
2023/03/30 01:26:45;;;;;;;5.68;2.90;;;;;;;;;;6214908;28;21914;-72
2023/03/30 01:30:09;;;;;;;9.50;3.08;;;;;;;;;;6213697;28;20057;-72
2023/03/30 01:33:18;;;;;;;;;;;;;;;;;;6211248;28;20058;-72
2023/03/30 01:36:40;;;;;;;9.98;3.47;;;;;;;;;;6213149;28;20024;-70
2023/03/30 01:39:51;;;;;;;8.85;2.97;;;;;;;;;;6212176;28;20061;-71
2023/03/30 01:43:00;;;;;;;9.32;3.30;;;;;;;;;;6214451;28;20053;-71
2023/03/30 01:46:10;;;;;;;10.07;2.80;;;;;;;;;;6209057;28;20042;-70
2023/03/30 01:49:15;;;;;;;6.85;2.65;;;;;;;;;;6214080;28;20801;-71
2023/03/30 01:52:20;;;;;;;8.85;3.38;;;;;;;;;;6201466;28;20054;-72
2023/03/30 01:55:26;;;;;;;7.15;2.65;;;;;;;;;;6211207;28;20056;-72
2023/03/30 01:58:35;;;;;;;9.35;2.90;;;;;;;;;;6254458;28;20044;-71
2023/03/30 02:01:40;;;;;;;5.95;2.58;;;;;;;;;;6292566;28;20056;-72
2023/03/30 02:04:44;;;;;;;9.88;3.10;;;;;;;;;;6290185;28;20325;-72
2023/03/30 02:07:49;;;;;;;8.35;3.22;;;;;;;;;;6290029;28;20352;-72
2023/03/30 02:10:54;;;;;;;9.75;2.83;;;;;;;;;;6289833;28;21286;-70
2023/03/30 02:13:58;;;;;;;10.80;3.58;;;;;;;;;;6289047;28;20086;-71
2023/03/30 02:17:05;;;;;;;11.85;3.92;;;;;;;;;;6296383;28;20050;-71
2023/03/30 02:20:11;;;;;;;11.15;3.78;;;;;;;;;;6297818;28;20049;-70
2023/03/30 02:23:13;;;;;;;6.38;3.05;;;;;;;;;;6292906;28;20364;-70
2023/03/30 02:26:17;;;;;;;9.23;3.28;;;;;;;;;;6293982;28;20060;-71
2023/03/30 02:29:28;;;;;;;8.85;3.00;;;;;;;;;;6293756;28;20102;-72
2023/03/30 02:32:36;;;;;;;12.85;3.72;;;;;;;;;;6286576;28;20044;-71
2023/03/30 02:35:52;;;;;;;11.02;3.10;;;;;;;;;;6292751;28;20049;-72
2023/03/30 02:39:06;;;;;;;7.32;3.20;;;;;;;;;;6296639;28;20056;-72
2023/03/30 02:42:42;;;;;;;8.35;3.00;;;;;;;;;;6289821;28;20056;-71
2023/03/30 02:45:52;;;;;;;8.30;3.13;;;;;;;;;;6288287;28;20305;-71
2023/03/30 02:49:01;;;;;;;7.32;2.90;;;;;;;;;;6292539;28;20044;-72
2023/03/30 02:52:09;;;;;;;6.75;3.10;;;;;;;;;;6293085;28;20049;-72
2023/03/30 02:55:19;;;;;;;7.10;2.70;;;;;;;;;;6286664;28;20068;-71
2023/03/30 02:58:25;;;;;;;8.85;3.08;;;;;;;;;;6309261;28;20116;-71
2023/03/30 03:01:32;;;;;;;9.20;2.90;;;;;;;;;;6312976;28;20060;-70
2023/03/30 03:04:34;;;;;;;9.02;3.22;;;;;;;;;;6314382;28;20052;-72
2023/03/30 03:07:37;;;;;;;8.68;2.83;;;;;;;;;;6314396;28;20060;-70
2023/03/30 03:10:38;;;;;;;8.48;3.13;;;;;;;;;;6312455;28;20119;-71
2023/03/30 03:13:41;;;;;;;9.20;2.80;;;;;;;;;;6313718;28;20136;-72
2023/03/30 03:16:44;;;;;;;8.27;3.03;;;;;;;;;;6311621;28;20056;-72
2023/03/30 03:19:45;;;;;;;9.50;3.03;;;;;;;;;;6310894;28;20048;-69
2023/03/30 03:22:47;;;;;;;6.43;2.60;;;;;;;;;;6313598;28;20083;-71
2023/03/30 03:25:49;;;;;;;10.38;2.88;;;;;;;;;;6311692;28;20060;-71
2023/03/30 03:28:50;;;;;;;7.32;2.97;;;;;;;;;;6312989;28;20056;-72
2023/03/30 03:31:54;;;;;;;8.23;2.70;;;;;;;;;;6312563;28;20037;-71
2023/03/30 03:34:55;;;;;;;6.73;2.53;;;;;;;;;;6314793;28;20052;-71
2023/03/30 03:37:57;;;;;;;12.55;3.22;;;;;;;;;;6314834;28;20052;-71
2023/03/30 03:40:59;;;;;;;6.30;2.58;;;;;;;;;;6320481;28;20139;-71
2023/03/30 03:44:01;;;;;;;11.25;3.60;;;;;;;;;;6319783;28;20052;-71
2023/03/30 03:47:04;;;;;;;9.23;2.63;;;;;;;;;;6315649;28;20048;-71
2023/03/30 03:50:08;;;;;;;9.33;2.83;;;;;;;;;;6316211;28;20348;-71
2023/03/30 03:53:11;;;;;;;7.90;3.13;;;;;;;;;;6313845;28;20166;-70
2023/03/30 03:56:13;;;;;;;10.75;3.60;;;;;;;;;;6316814;28;20060;-70
2023/03/30 03:59:15;;;;;;;7.63;2.72;;;;;;;;;;6316219;28;20051;-71
2023/03/30 04:02:18;;;;;;;6.70;2.70;;;;;;;;;;6316176;28;20067;-72
2023/03/30 04:05:20;;;;;;;10.45;3.05;;;;;;;;;;6316681;28;20345;-71
2023/03/30 04:08:22;;;;;;;9.15;2.50;;;;;;;;;;6316027;28;20052;-71
2023/03/30 04:11:25;;;;;;;9.15;2.97;;;;;;;;;;6315506;28;20355;-71
2023/03/30 04:14:27;;;;;;;7.97;3.50;;;;;;;;;;6315522;28;20117;-71
2023/03/30 04:17:32;;;;;;;9.93;2.72;;;;;;;;;;6316789;28;20056;-72
2023/03/30 04:20:34;;;;;;;9.45;2.80;;;;;;;;;;6315180;28;20049;-72
2023/03/30 04:23:35;;;;;;;7.28;2.50;;;;;;;;;;6316455;28;20056;-69
2023/03/30 04:26:37;;;;;;;7.55;2.88;;;;;;;;;;6315860;28;20048;-72
2023/03/30 04:29:40;;;;;;;8.52;2.95;;;;;;;;;;6314051;28;20454;-71
2023/03/30 04:32:45;;;;;;;5.40;2.58;;;;;;;;;;6314565;28;20054;-71
2023/03/30 04:35:47;;;;;;;8.68;2.55;;;;;;;;;;6313918;28;20063;-71
2023/03/30 04:38:57;;;;;;;7.00;2.47;;;;;;;;;;6315558;28;20062;-71
2023/03/30 04:42:01;;;;;;;7.93;2.50;;;;;;;;;;6316142;28;22088;-71
2023/03/30 04:45:03;;;;;;;9.20;2.78;;;;;;;;;;6313681;28;20099;-70
2023/03/30 04:48:06;;;;;;;9.82;2.80;;;;;;;;;;6316887;28;20138;-72
2023/03/30 04:51:08;;;;;;;9.67;2.30;;;;;;;;;;6316773;28;20047;-72
2023/03/30 04:54:10;;;;;;;9.15;2.38;;;;;;;;;;6317681;28;20339;-69
2023/03/30 04:57:12;;;;;;;6.30;2.47;;;;;;;;;;6318017;28;20056;-70
2023/03/30 05:00:16;;;;;;;8.18;2.47;;;;;;;;;;6316782;28;20111;-69
2023/03/30 05:03:19;;;;;;;9.95;2.25;;;;;;;;;;6317477;28;20062;-71
2023/03/30 05:06:22;;;;;;;4.80;2.47;;;;;;;;;;6316545;28;20385;-71
2023/03/30 05:09:23;;;;;;;6.75;2.35;;;;;;;;;;6315872;28;20052;-70
2023/03/30 05:12:25;;;;;;;4.63;2.20;;;;;;;;;;6316472;28;20075;-70
2023/03/30 05:15:27;;;;;;;3.30;1.83;;;;;;;;;;6315175;28;20051;-69
2023/03/30 05:18:30;;;;;;;10.15;2.60;;;;;;;;;;6314315;28;20051;-68
2023/03/30 05:21:42;;;;;;;9.93;2.23;;;;;;;;;;6314149;28;20241;-72
2023/03/30 05:24:44;;;;;;;9.02;2.28;;;;;;;;;;6314920;28;20118;-73
2023/03/30 05:27:45;;;;;;;7.53;2.28;;;;;;;;;;6319965;28;20055;-71
2023/03/30 05:30:47;;;;;;;8.15;2.05;;;;;;;;;;6314572;28;20052;-70
2023/03/30 05:33:51;;;;;;;5.68;2.10;;;;;;;;;;6312242;28;20086;-70
2023/03/30 05:36:52;;;;;;;8.85;3.03;;;;;;;;;;6319269;28;20043;-70
2023/03/30 05:39:54;;;;;;;7.25;2.50;;;;;;;;;;6316045;28;20102;-70
2023/03/30 05:42:56;;;;;;;8.32;2.15;;;;;;;;;;6314409;28;20283;-67
2023/03/30 05:45:57;;;;;;;6.93;2.28;;;;;;;;;;6316092;28;20060;-72
2023/03/30 05:49:01;;;;;;;6.22;2.33;;;;;;;;;;6316936;28;20056;-72
2023/03/30 05:52:03;;;;;;;9.80;2.80;;;;;;;;;;6317440;28;20240;-70
2023/03/30 05:55:06;;;;;;;11.57;3.03;;;;;;;;;;6315101;28;20348;-70
2023/03/30 05:58:07;;;;;;;7.97;2.75;;;;;;;;;;6314913;28;20044;-68
2023/03/30 06:01:10;;;;;;;5.57;2.33;;;;;;;;;;6315123;28;20125;-71
2023/03/30 06:04:14;;;;;;;7.73;2.77;;;;;;;;;;6316570;28;20076;-68
2023/03/30 06:07:17;;;;;;;4.78;2.53;;;;;;;;;;6314005;28;20654;-70
2023/03/30 06:10:19;;;;;;;8.77;2.95;;;;;;;;;;6315232;28;20071;-71
2023/03/30 06:13:20;;;;;;;8.20;2.58;;;;;;;;;;6311377;28;20052;-71
2023/03/30 06:16:22;;;;;;;7.18;2.50;;;;;;;;;;6315532;28;20056;-70
2023/03/30 06:19:25;;;;;;;9.57;2.65;;;;;;;;;;6313746;28;20085;-69
2023/03/30 06:22:27;;;;;;;14.80;3.50;;;;;;;;;;6313420;28;20101;-70
2023/03/30 06:25:29;;;;;;;13.13;4.90;;;;;;;;;;6311169;28;20226;-69
2023/03/30 06:28:31;;;;;;;11.18;4.35;;;;;;;;;;6315867;28;20064;-69
2023/03/30 06:31:33;;;;;;;9.65;4.13;;;;;;;;;;6313844;28;20052;-70
2023/03/30 06:34:36;;;;;;;12.82;5.07;;;;;;;;;;6310176;28;20048;-70
2023/03/30 06:37:37;;;;;;;14.70;5.25;;;;;;;;;;6313161;28;20274;-74
2023/03/30 06:40:39;;;;;;;18.40;5.75;;;;;;;;;;6312260;28;20063;-76
2023/03/30 06:43:41;;;;;;;18.42;5.68;;;;;;;;;;6312988;28;20051;-77
2023/03/30 06:46:42;;;;;;;15.23;6.30;;;;;;;;;;6313226;28;20346;-75
2023/03/30 06:49:46;;;;;;;24.75;7.05;;;;;;;;;;6315939;28;20067;-67
2023/03/30 06:52:47;;;;;;;20.77;7.10;;;;;;;;;;6313796;28;20350;-71
2023/03/30 06:55:51;;;;;;;16.35;6.93;;;;;;;;;;6311804;28;20055;-72
2023/03/30 06:58:53;;;;;;;15.88;7.32;;;;;;;;;;6312559;28;20071;-72
2023/03/30 07:01:55;;;;;;;13.07;7.90;;;;;;;;;;6314552;28;20052;-72
2023/03/30 07:04:59;;;;;;;15.98;7.35;;;;;;;;;;6315383;28;20068;-73
2023/03/30 07:08:01;;;;;;;12.43;7.13;;;;;;;;;;6313800;28;20055;-71
2023/03/30 07:11:04;;;;;;;16.67;7.88;;;;;;;;;;6312825;28;20444;-71
2023/03/30 07:14:08;;;;;;;19.67;8.65;;;;;;;;;;6315708;28;20048;-71
2023/03/30 07:17:11;;;;;;;22.60;8.27;;;;;;;;;;6320885;28;20075;-69
2023/03/30 07:20:14;;;;;;;11.77;7.43;;;;;;;;;;6318174;28;20044;-72
2023/03/30 07:23:16;;;;;;;13.48;7.43;;;;;;;;;;6317247;28;20298;-71
2023/03/30 07:26:18;;;;;;;15.82;8.82;;;;;;;;;;6321899;28;20052;-70
2023/03/30 07:29:20;;;;;;;21.15;9.23;;;;;;;;;;6317289;28;20320;-70
2023/03/30 07:32:22;;;;;;;17.33;8.27;;;;;;;;;;6319717;28;20056;-70
2023/03/30 07:35:25;;;;;;;21.83;9.00;;;;;;;;;;6320765;28;20336;-71
2023/03/30 07:38:27;;;;;;;13.15;8.20;;;;;;;;;;6319768;28;20052;-71
2023/03/30 07:41:29;;;;;;;21.63;9.15;;;;;;;;;;6319044;28;20056;-71
2023/03/30 07:44:31;;;;;;;14.15;7.70;;;;;;;;;;6316634;28;20328;-71
2023/03/30 07:47:33;;;;;;;16.15;8.27;;;;;;;;;;6319986;28;20060;-70
2023/03/30 07:50:36;;;;;;;17.73;9.00;;;;;;;;;;6318534;28;20055;-70
2023/03/30 07:53:38;;;;;;;22.02;9.95;;;;;;;;;;6314989;28;20319;-71
2023/03/30 07:56:41;;;;;;;16.70;9.02;;;;;;;;;;6315451;28;20119;-70
2023/03/30 07:59:43;;;;;;;17.88;9.95;;;;;;;;;;6320668;28;20115;-70
2023/03/30 08:02:45;;;;;;;22.38;10.13;;;;;;;;;;6315954;28;20543;-70
2023/03/30 08:05:53;;;;;;;17.70;9.20;;;;;;;;;;6317358;28;20086;-70
2023/03/30 08:08:55;;;;;;;19.33;9.73;;;;;;;;;;6317600;28;20055;-71
2023/03/30 08:12:00;;;;;;;20.02;9.70;;;;;;;;;;6317688;28;20052;-71
2023/03/30 08:15:02;;;;;;;17.88;9.73;;;;;;;;;;6314906;28;20182;-71
2023/03/30 08:18:06;;;;;;;17.20;9.63;;;;;;;;;;6320279;28;20044;-70
2023/03/30 08:21:10;;;;;;;17.27;10.45;;;;;;;;;;6319507;28;20056;-71
2023/03/30 08:24:11;;;;;;;17.02;9.35;;;;;;;;;;6317498;28;20418;-72
2023/03/30 08:27:13;;;;;;;17.40;8.98;;;;;;;;;;6313700;28;20460;-71
2023/03/30 08:30:15;;;;;;;17.25;8.70;;;;;;;;;;6314684;28;20324;-70
2023/03/30 08:33:18;;;;;;;17.23;9.70;;;;;;;;;;6315104;28;20383;-71
2023/03/30 08:36:24;;;;;;;21.17;10.23;;;;;;;;;;6319285;28;20232;-71
2023/03/30 08:39:27;;;;;;;14.90;8.02;;;;;;;;;;6319101;28;20865;-71
2023/03/30 08:42:39;;;;;;;15.55;8.80;;;;;;;;;;6315955;28;20040;-71
2023/03/30 08:45:41;;;;;;;15.15;8.60;;;;;;;;;;6319956;28;20214;-71
2023/03/30 08:48:43;;;;;;;14.90;8.50;;;;;;;;;;6315601;28;20048;-69
2023/03/30 08:51:49;;;;;;;16.02;8.98;;;;;;;;;;6317681;28;20075;-70
2023/03/30 08:54:53;;;;;;;16.30;9.13;;;;;;;;;;6317770;28;20089;-71
2023/03/30 08:57:56;;;;;;;;;;;;;;;;;;6301005;28;20082;-70
2023/03/30 09:01:02;;;;;;;13.25;8.35;;;;;;;;;;6262717;28;19978;-70
2023/03/30 09:04:16;;;;;;;21.30;8.57;;;;;;;;;;6290744;28;20059;-71
2023/03/30 09:07:21;;;;;;;18.52;7.88;;;;;;;;;;6289471;28;20111;-71
2023/03/30 09:10:25;;;;;;;15.65;8.00;;;;;;;;;;6287391;28;20039;-71
2023/03/30 09:13:30;;;;;;;16.48;8.23;;;;;;;;;;6289388;28;20053;-71
2023/03/30 09:16:37;;;;;;;16.52;8.10;;;;;;;;;;6288323;28;20072;-70
2023/03/30 09:19:47;;;;;;;16.77;8.80;;;;;;;;;;6289321;28;20259;-70
2023/03/30 09:22:53;;;;;;;21.92;9.55;;;;;;;;;;6289436;28;20045;-71
2023/03/30 09:26:01;;;;;;;18.85;9.43;;;;;;;;;;6289475;28;20048;-71
2023/03/30 09:29:07;;;;;;;19.02;9.48;;;;;;;;;;6288995;28;20048;-71
2023/03/30 09:32:14;;;;;;;17.38;9.48;;;;;;;;;;6288025;28;20053;-71
2023/03/30 09:35:17;;;;;;;16.13;8.73;;;;;;;;;;6288172;28;20056;-70
2023/03/30 09:38:22;;;;;;;;;;;;;;;;;;6289007;28;20072;-71
2023/03/30 09:41:43;;;;;;;13.95;8.50;;;;;;;;;;6287541;28;19932;-72
2023/03/30 09:44:48;;;;;;;14.40;8.73;;;;;;;;;;6290995;28;20049;-72
2023/03/30 09:47:50;;;;;;;14.85;8.32;;;;;;;;;;6286614;28;20053;-72
2023/03/30 09:50:52;;;;;;;14.93;8.55;;;;;;;;;;6285594;28;20060;-72
2023/03/30 09:54:00;;;;;;;15.50;8.60;;;;;;;;;;6287547;28;20146;-72
2023/03/30 09:57:02;;;;;;;10.50;5.75;;;;;;;;;;6301838;28;20161;-71
2023/03/30 10:00:24;;;;;;;11.48;6.50;;;;;;;;;;6312626;28;20282;-72
2023/03/30 10:03:26;;;;;;;10.77;6.18;;;;;;;;;;6314262;28;20099;-71
2023/03/30 10:06:28;;;;;;;12.70;5.68;;;;;;;;;;6316105;28;20044;-72
2023/03/30 10:09:31;;;;;;;12.98;7.38;;;;;;;;;;6311381;28;22875;-71
2023/03/30 10:12:33;;;;;;;9.40;6.07;;;;;;;;;;6314486;28;20111;-72
2023/03/30 10:15:38;;;;;;;12.63;6.85;;;;;;;;;;6313772;28;20056;-71
2023/03/30 10:18:41;;;;;;;14.70;6.80;;;;;;;;;;6313170;28;20350;-71
2023/03/30 10:21:45;;;;;;;14.85;6.60;;;;;;;;;;6314227;28;20048;-72
2023/03/30 10:24:54;;;;;;;10.60;6.63;;;;;;;;;;6312072;28;20155;-72
2023/03/30 10:27:56;;;;;;;12.88;7.30;;;;;;;;;;6313816;28;20224;-72
2023/03/30 10:31:00;;;;;;;13.30;8.53;;;;;;;;;;6314332;28;20095;-72
2023/03/30 10:34:03;;;;;;;15.15;8.90;;;;;;;;;;6313704;28;20052;-72
2023/03/30 10:37:07;;;;;;;14.73;8.80;;;;;;;;;;6312901;28;20328;-71
2023/03/30 10:40:15;;;;;;;14.77;9.07;;;;;;;;;;6311388;28;20111;-72
2023/03/30 10:43:19;;;;;;;14.40;8.77;;;;;;;;;;6311435;28;20056;-72
2023/03/30 10:46:22;;;;;;;17.52;9.30;;;;;;;;;;6313363;28;20214;-72
2023/03/30 10:49:34;;;;;;;13.97;8.50;;;;;;;;;;6311108;28;20107;-72
2023/03/30 10:52:42;;;;;;;15.32;9.25;;;;;;;;;;6312048;28;20067;-71
2023/03/30 10:55:50;;;;;;;14.32;8.55;;;;;;;;;;6310718;28;20151;-71
2023/03/30 10:59:06;;;;;;;11.68;8.15;;;;;;;;;;6313930;28;20055;-72
2023/03/30 11:02:23;;;;;;;15.63;8.32;;;;;;;;;;6311684;28;20056;-72
2023/03/30 11:05:29;;;;;;;17.20;9.05;;;;;;;;;;6311169;28;20051;-71
2023/03/30 11:08:34;;;;;;;16.67;8.88;;;;;;;;;;6313009;28;20052;-72
2023/03/30 11:11:40;;;;;;;15.32;9.27;;;;;;;;;;6311759;28;20063;-72
2023/03/30 11:14:47;;;;;;;15.65;8.65;;;;;;;;;;6312011;28;20461;-72
2023/03/30 11:17:56;;;;;;;13.05;8.82;;;;;;;;;;6312254;28;20048;-72
2023/03/30 11:21:01;;;;;;;12.82;8.50;;;;;;;;;;6311051;28;20264;-72
2023/03/30 11:24:07;;;;;;;15.63;9.15;;;;;;;;;;6312908;28;20063;-70
2023/03/30 11:27:14;;;;;;;15.82;7.45;;;;;;;;;;6316555;28;20063;-71
2023/03/30 11:30:18;;;;;;;13.15;7.13;;;;;;;;;;6317358;28;20059;-69
2023/03/30 11:33:28;;;;;;;17.42;6.10;;;;;;;;;;6318998;28;20059;-70
2023/03/30 11:36:35;;;;;;;11.15;5.68;;;;;;;;;;6316891;28;20441;-69
2023/03/30 11:39:40;;;;;;;10.45;6.53;;;;;;;;;;6318607;28;20105;-70
2023/03/30 12:01:13;;;;;;;13.07;6.75;;;;;;;;;;6322926;28;20064;-71
2023/03/30 12:04:16;;;;;;;11.30;5.80;;;;;;;;;;6318773;28;20048;-70
2023/03/30 12:07:27;;;;;;;12.40;6.07;;;;;;;;;;6324226;28;20056;-69
2023/03/30 12:10:34;;;;;;;11.32;4.10;;;;;;;;;;6322504;28;20063;-68
2023/03/30 12:13:35;;;;;;;7.80;4.57;;;;;;;;;;6326274;28;20345;-69
2023/03/30 12:16:43;;;;;;;10.80;3.80;;;;;;;;;;6324509;28;20098;-70
2023/03/30 12:19:49;;;;;;;8.63;4.03;;;;;;;;;;6322327;28;20048;-70
2023/03/30 12:22:54;;;;;;;10.15;3.22;;;;;;;;;;6323151;28;20052;-71
2023/03/30 12:26:17;;;;;;;12.52;4.32;;;;;;;;;;6323291;28;20056;-70
2023/03/30 12:29:20;;;;;;;9.63;4.15;;;;;;;;;;6319719;28;20362;-71
2023/03/30 12:32:27;;;;;;;10.05;4.15;;;;;;;;;;6321908;28;20115;-71
2023/03/30 12:36:00;;;;;;;11.80;3.47;;;;;;;;;;6322624;28;20201;-70
2023/03/30 12:39:04;;;;;;;8.13;3.00;;;;;;;;;;6307151;28;20055;-70
2023/03/30 12:45:26;;;;;;;6.88;2.38;;;;;;;;;;6543769;22;20061;-70
2023/03/30 12:48:35;;;;;;;8.30;2.95;;;;;;;;;;6244844;28;20229;-70
2023/03/30 12:51:52;;;;;;;8.75;4.40;;;;;;;;;;6241393;28;20100;-71
2023/03/30 12:55:18;;;;;;;10.68;4.18;;;;;;;;;;6242172;28;20347;-71
2023/03/30 12:58:32;;;;;;;11.02;4.75;;;;;;;;;;6243867;28;20116;-70
2023/03/30 13:01:45;;;;;;;9.13;4.55;;;;;;;;;;6240786;28;20116;-71
2023/03/30 13:04:49;;;;;;;10.90;4.28;;;;;;;;;;6243340;28;20846;-70
2023/03/30 13:07:52;;;;;;;8.48;3.70;;;;;;;;;;6240888;28;20133;-70
2023/03/30 13:11:23;;;;;;;11.52;3.55;;;;;;;;;;6243191;28;20214;-70
2023/03/30 13:14:27;;;;;;;10.30;3.47;;;;;;;;;;6243305;28;20057;-70
2023/03/30 13:17:57;;;;;;;7.50;3.58;;;;;;;;;;6240903;28;20053;-71
2023/03/30 13:21:22;;;;;;;10.45;4.00;;;;;;;;;;6226496;28;20144;-70
2023/03/30 13:24:27;;;;;;;8.48;3.22;;;;;;;;;;6237585;28;20053;-70
2023/03/30 13:27:32;;;;;;;8.63;4.20;;;;;;;;;;6241017;28;20304;-70
2023/03/30 13:30:34;;;;;;;9.93;3.75;;;;;;;;;;6242407;28;20073;-71
2023/03/30 13:33:37;;;;;;;9.15;3.53;;;;;;;;;;6243208;28;20064;-70
2023/03/30 13:36:44;;;;;;;8.93;3.30;;;;;;;;;;6240429;28;20058;-70
2023/03/30 13:39:51;;;;;;;9.70;3.25;;;;;;;;;;6242138;28;20622;-70
2023/03/30 13:43:00;;;;;;;12.73;3.75;;;;;;;;;;6243070;28;20240;-71
2023/03/30 13:46:05;;;;;;;11.90;3.42;;;;;;;;;;6240480;28;20088;-71
2023/03/30 13:49:15;;;;;;;8.23;1.88;;;;;;;;;;6238649;28;20065;-71
2023/03/30 13:52:22;;;;;;;5.70;1.38;;;;;;;;;;6238911;28;20061;-70
2023/03/30 13:55:27;;;;;;;8.25;2.00;;;;;;;;;;6242397;28;20053;-71
2023/03/30 13:58:33;;;;;;;6.40;1.50;;;;;;;;;;6241414;28;20053;-71
2023/03/30 14:01:35;;;;;;;7.78;2.20;;;;;;;;;;6244032;28;20106;-70
2023/03/30 14:04:37;;;;;;;5.85;1.95;;;;;;;;;;6240353;28;20248;-70
2023/03/30 14:07:46;;;;;;;4.85;1.77;;;;;;;;;;6240343;28;20048;-70
2023/03/30 14:10:48;;;;;;;6.20;2.30;;;;;;;;;;6242028;28;20049;-70
2023/03/30 14:13:52;;;;;;;6.05;1.70;;;;;;;;;;6240415;28;20056;-71
2023/03/30 14:16:53;;;;;;;;;;;;;;;;;;6239584;28;20309;-71
2023/03/30 14:20:05;;;;;;;6.00;1.65;;;;;;;;;;6239561;28;19960;-71
2023/03/30 14:23:15;;;;;;;7.72;1.55;;;;;;;;;;6240216;28;20045;-71
2023/03/30 14:26:18;;;;;;;7.30;1.55;;;;;;;;;;6239093;28;20391;-71
2023/03/30 14:29:21;;;;;;;6.60;1.40;;;;;;;;;;6240634;28;20072;-70
2023/03/30 14:32:25;;;;;;;3.87;1.40;;;;;;;;;;6237863;28;20296;-71
2023/03/30 14:35:28;;;;;;;8.10;1.63;;;;;;;;;;6240377;28;20045;-70
2023/03/30 14:38:36;;;;;;;9.15;1.40;;;;;;;;;;6241411;28;20053;-70
2023/03/30 14:41:38;;;;;;;7.13;1.50;;;;;;;;;;6238871;28;20319;-71
2023/03/30 14:44:43;;;;;;;10.00;1.65;;;;;;;;;;6238537;28;22261;-70
2023/03/30 14:47:46;;;;;;;7.97;1.80;;;;;;;;;;6239066;28;20080;-71
2023/03/30 14:50:49;;;;;;;6.70;1.90;;;;;;;;;;6241912;28;20247;-71
2023/03/30 14:53:53;;;;;;;10.75;1.70;;;;;;;;;;6241678;28;20053;-71
2023/03/30 14:56:57;;;;;;;5.97;1.75;;;;;;;;;;6238598;28;20049;-70
2023/03/30 15:00:00;;;;;;;7.15;1.65;;;;;;;;;;6242638;28;20073;-71
2023/03/30 15:03:04;;;;;;;14.75;2.55;;;;;;;;;;6237877;28;20084;-70
2023/03/30 15:06:07;;;;;;;4.93;1.80;;;;;;;;;;6239403;28;20061;-71
2023/03/30 15:10:04;;;;;;;3.73;1.47;;;;;;;;;;6243973;28;20107;-71
2023/03/30 15:13:08;;;;;;;5.60;1.20;;;;;;;;;;6239437;28;20148;-71
2023/03/30 15:16:15;;;;;;;9.85;2.10;;;;;;;;;;6241252;28;20057;-71
2023/03/30 15:19:25;;;;;;;10.40;2.30;;;;;;;;;;6242441;28;20100;-71
2023/03/30 15:22:30;;;;;;;7.72;2.17;;;;;;;;;;6241263;28;20099;-71
2023/03/30 15:25:34;;;;;;;6.80;1.55;;;;;;;;;;6239357;28;20060;-69
2023/03/30 15:28:38;;;;;;;;;;;;;;;;;;6239590;28;20060;-70
2023/03/30 15:31:42;;;;;;;7.05;1.73;;;;;;;;;;6240806;28;19921;-70
2023/03/30 15:35:00;;;;;;;5.80;1.95;;;;;;;;;;6241554;28;20375;-72
2023/03/30 15:38:03;;;;;;;4.90;2.05;;;;;;;;;;6243138;28;20337;-72
2023/03/30 15:41:13;;;;;;;6.35;1.30;;;;;;;;;;6245876;28;20072;-72
2023/03/30 15:44:19;;;;;;;4.68;1.65;;;;;;;;;;6243932;28;20283;-72
2023/03/30 15:47:21;;;;;;;10.35;1.60;;;;;;;;;;6244451;28;20364;-72
2023/03/30 15:50:23;;;;;;;9.48;2.63;;;;;;;;;;6242065;28;20054;-72
2023/03/30 15:53:33;;;;;;;11.40;2.78;;;;;;;;;;6247939;28;20240;-72
2023/03/30 15:56:40;;;;;;;6.30;1.55;;;;;;;;;;6242285;28;20053;-71
2023/03/30 15:59:46;;;;;;;6.95;1.90;;;;;;;;;;6244119;28;20064;-72
2023/03/30 16:02:51;;;;;;;4.72;1.55;;;;;;;;;;6243474;28;20244;-72
2023/03/30 16:05:53;;;;;;;9.68;1.70;;;;;;;;;;6241618;28;20053;-72
2023/03/30 16:08:55;;;;;;;5.82;1.50;;;;;;;;;;6245645;28;20264;-72
2023/03/30 16:11:58;;;;;;;10.25;1.65;;;;;;;;;;6244012;28;20072;-72
2023/03/30 16:15:01;;;;;;;10.20;1.85;;;;;;;;;;6244400;28;20057;-72
2023/03/30 16:18:03;;;;;;;11.68;1.60;;;;;;;;;;6243200;28;20119;-72
2023/03/30 16:21:06;;;;;;;9.15;1.75;;;;;;;;;;6247392;28;20319;-71
2023/03/30 16:24:10;;;;;;;6.13;1.70;;;;;;;;;;6241662;28;20045;-72
2023/03/30 16:27:12;;;;;;;5.05;1.73;;;;;;;;;;6244469;28;20049;-72
2023/03/30 16:30:24;;;;;;;5.15;1.40;;;;;;;;;;6241430;28;20451;-71
2023/03/30 16:33:26;;;;;;;33.10;15.20;;;;;;;;;;6250406;28;20053;-71
2023/03/30 16:36:28;;;;;;;44.63;25.33;;;;;;;;;;6246994;28;20112;-71
2023/03/30 16:39:30;;;;;;;24.88;11.50;;;;;;;;;;6244893;28;20057;-71
2023/03/30 16:42:32;;;;;;;7.95;2.97;;;;;;;;;;6244952;28;20117;-72
2023/03/30 16:45:36;;;;;;;9.40;1.80;;;;;;;;;;6241034;28;20053;-72
2023/03/30 16:48:38;;;;;;;6.13;1.48;;;;;;;;;;6241795;28;20084;-72
2023/03/30 16:51:40;;;;;;;4.28;1.65;;;;;;;;;;6244634;28;20247;-72
2023/03/30 16:54:45;;;;;;;5.45;1.70;;;;;;;;;;6248585;28;20059;-72
2023/03/30 17:01:04;;;;;;;6.57;1.70;;;;;;;;;;6241562;28;20065;-72
2023/03/30 17:04:14;;;;;;;10.10;1.80;;;;;;;;;;6242035;28;20057;-72
2023/03/30 17:07:21;;;;;;;4.72;1.42;;;;;;;;;;6240844;28;20134;-71
2023/03/30 17:10:29;;;;;;;5.10;1.30;;;;;;;;;;6240636;28;20048;-72
2023/03/30 17:13:31;;;;;;;4.88;1.50;;;;;;;;;;6248419;28;20064;-71
2023/03/30 17:16:37;;;;;;;13.18;2.10;;;;;;;;;;6244815;28;20049;-72
2023/03/30 17:19:39;;;;;;;6.97;2.20;;;;;;;;;;6245682;28;20045;-71
2023/03/30 17:22:41;;;;;;;8.93;2.08;;;;;;;;;;6243082;28;20286;-72
2023/03/30 17:25:46;;;;;;;7.95;1.90;;;;;;;;;;6240150;28;20061;-72
2023/03/30 17:28:48;;;;;;;4.57;1.67;;;;;;;;;;6241641;28;20148;-72
2023/03/30 17:31:51;;;;;;;6.18;1.45;;;;;;;;;;6242790;28;20045;-72
2023/03/30 17:34:56;;;;;;;12.57;1.73;;;;;;;;;;6243532;28;20042;-72
2023/03/30 17:37:58;;;;;;;7.70;2.88;;;;;;;;;;6243537;28;20056;-72
2023/03/30 17:41:00;;;;;;;7.53;1.77;;;;;;;;;;6239773;28;20113;-72
2023/03/30 17:44:04;;;;;;;6.20;1.38;;;;;;;;;;6240335;28;20050;-72
2023/03/30 17:47:16;;;;;;;6.25;1.63;;;;;;;;;;6231438;28;20058;-72
2023/03/30 17:56:59;;;;;;;9.77;2.75;;;;;;;;;;6224174;28;20065;-71
2023/03/30 18:00:02;;;;;;;7.97;1.75;;;;;;;;;;6238466;28;20049;-71
2023/03/30 18:03:07;;;;;;;7.65;1.88;;;;;;;;;;6243199;28;20084;-72
2023/03/30 18:06:11;;;;;;;5.57;1.73;;;;;;;;;;6240235;28;20050;-72
2023/03/30 18:09:16;;;;;;;8.82;1.95;;;;;;;;;;6238706;28;20042;-72
2023/03/30 18:12:18;;;;;;;5.95;1.58;;;;;;;;;;6241067;28;20115;-73
2023/03/30 18:15:24;;;;;;;5.53;1.80;;;;;;;;;;6240307;28;20084;-69
2023/03/30 18:18:28;;;;;;;10.93;2.63;;;;;;;;;;6239355;28;20111;-72
2023/03/30 18:21:30;;;;;;;7.05;2.38;;;;;;;;;;6241002;28;20057;-71
2023/03/30 18:24:32;;;;;;;8.68;2.10;;;;;;;;;;6239069;28;20059;-68
2023/03/30 18:27:34;;;;;;;6.70;1.77;;;;;;;;;;6240455;28;20060;-68
2023/03/30 18:30:37;;;;;;;9.68;2.08;;;;;;;;;;6242396;28;20065;-71
2023/03/30 18:33:40;;;;;;;8.68;2.20;;;;;;;;;;6242655;28;20049;-69
2023/03/30 18:36:42;;;;;;;4.72;2.13;;;;;;;;;;6244986;28;20053;-69
2023/03/30 18:39:47;;;;;;;7.38;2.10;;;;;;;;;;6248789;28;20053;-70
2023/03/30 18:43:01;;;;;;;7.95;2.47;;;;;;;;;;6244606;28;20048;-69
2023/03/30 18:46:03;;;;;;;9.57;2.22;;;;;;;;;;6244305;28;20236;-71
2023/03/30 18:49:09;;;;;;;9.85;2.35;;;;;;;;;;6244053;28;20092;-69
2023/03/30 18:52:11;;;;;;;7.90;2.13;;;;;;;;;;6234833;28;20049;-69
2023/03/30 18:55:14;;;;;;;7.38;2.88;;;;;;;;;;6244484;28;20057;-68
2023/03/30 18:58:18;;;;;;;9.80;2.40;;;;;;;;;;6244893;28;20069;-67